sensor_id;sensor_type;location;lat;lon;timestamp;P1;durP1;ratioP1;P2;durP2;ratioP2
76136;SDS011;68622;53.128;17.966;2024-01-30T00:02:11;163.70;;;60.30;;
76136;SDS011;68622;53.128;17.966;2024-01-30T00:04:37;152.30;;;57.30;;
76136;SDS011;68622;53.128;17.966;2024-01-30T00:07:03;171.50;;;68.20;;
76136;SDS011;68622;53.128;17.966;2024-01-30T00:09:29;182.80;;;71.60;;
76136;SDS011;68622;53.128;17.966;2024-01-30T00:11:56;173.50;;;68.00;;
76136;SDS011;68622;53.128;17.966;2024-01-30T00:14:22;172.50;;;67.20;;
76136;SDS011;68622;53.128;17.966;2024-01-30T00:16:48;158.10;;;61.80;;
76136;SDS011;68622;53.128;17.966;2024-01-30T00:19:14;164.20;;;60.00;;
76136;SDS011;68622;53.128;17.966;2024-01-30T00:21:40;157.40;;;61.60;;
76136;SDS011;68622;53.128;17.966;2024-01-30T00:24:06;151.00;;;58.80;;
76136;SDS011;68622;53.128;17.966;2024-01-30T00:26:33;150.50;;;59.00;;
76136;SDS011;68622;53.128;17.966;2024-01-30T00:28:59;145.50;;;55.30;;
76136;SDS011;68622;53.128;17.966;2024-01-30T00:31:25;144.60;;;57.00;;
76136;SDS011;68622;53.128;17.966;2024-01-30T00:33:50;103.80;;;41.50;;
76136;SDS011;68622;53.128;17.966;2024-01-30T00:36:16;89.20;;;37.00;;
76136;SDS011;68622;53.128;17.966;2024-01-30T00:38:42;130.50;;;50.20;;
76136;SDS011;68622;53.128;17.966;2024-01-30T00:41:09;153.50;;;60.10;;
76136;SDS011;68622;53.128;17.966;2024-01-30T00:43:35;154.20;;;62.60;;
76136;SDS011;68622;53.128;17.966;2024-01-30T00:46:01;173.70;;;65.50;;
76136;SDS011;68622;53.128;17.966;2024-01-30T00:48:27;160.70;;;65.60;;
76136;SDS011;68622;53.128;17.966;2024-01-30T00:50:53;167.70;;;66.50;;
76136;SDS011;68622;53.128;17.966;2024-01-30T00:53:19;158.30;;;61.10;;
76136;SDS011;68622;53.128;17.966;2024-01-30T00:55:45;150.90;;;55.90;;
76136;SDS011;68622;53.128;17.966;2024-01-30T00:58:11;147.00;;;58.80;;
76136;SDS011;68622;53.128;17.966;2024-01-30T01:00:37;142.60;;;56.30;;
76136;SDS011;68622;53.128;17.966;2024-01-30T01:03:03;137.70;;;57.00;;
76136;SDS011;68622;53.128;17.966;2024-01-30T01:05:29;141.90;;;53.50;;
76136;SDS011;68622;53.128;17.966;2024-01-30T01:07:55;133.90;;;51.10;;
76136;SDS011;68622;53.128;17.966;2024-01-30T01:10:21;80.60;;;32.70;;
76136;SDS011;68622;53.128;17.966;2024-01-30T01:12:48;85.80;;;36.00;;
76136;SDS011;68622;53.128;17.966;2024-01-30T01:15:14;112.50;;;44.10;;
76136;SDS011;68622;53.128;17.966;2024-01-30T01:17:40;129.40;;;51.60;;
76136;SDS011;68622;53.128;17.966;2024-01-30T01:20:06;151.80;;;56.50;;
76136;SDS011;68622;53.128;17.966;2024-01-30T01:22:33;153.00;;;59.00;;
76136;SDS011;68622;53.128;17.966;2024-01-30T01:25:00;141.30;;;56.20;;
76136;SDS011;68622;53.128;17.966;2024-01-30T01:27:27;128.70;;;53.90;;
76136;SDS011;68622;53.128;17.966;2024-01-30T01:29:53;131.30;;;50.20;;
76136;SDS011;68622;53.128;17.966;2024-01-30T01:32:19;123.00;;;49.80;;
76136;SDS011;68622;53.128;17.966;2024-01-30T01:34:45;122.30;;;49.00;;
76136;SDS011;68622;53.128;17.966;2024-01-30T01:37:11;129.20;;;50.40;;
76136;SDS011;68622;53.128;17.966;2024-01-30T01:39:37;122.70;;;47.90;;
76136;SDS011;68622;53.128;17.966;2024-01-30T01:42:03;117.20;;;48.60;;
76136;SDS011;68622;53.128;17.966;2024-01-30T01:44:30;111.30;;;46.50;;
76136;SDS011;68622;53.128;17.966;2024-01-30T01:46:56;108.90;;;43.20;;
76136;SDS011;68622;53.128;17.966;2024-01-30T01:49:23;96.40;;;41.00;;
76136;SDS011;68622;53.128;17.966;2024-01-30T01:51:51;96.30;;;40.90;;
76136;SDS011;68622;53.128;17.966;2024-01-30T01:54:19;116.90;;;47.00;;
76136;SDS011;68622;53.128;17.966;2024-01-30T01:56:45;116.80;;;47.90;;
76136;SDS011;68622;53.128;17.966;2024-01-30T01:59:11;111.30;;;46.80;;
76136;SDS011;68622;53.128;17.966;2024-01-30T02:01:38;115.90;;;47.60;;
76136;SDS011;68622;53.128;17.966;2024-01-30T02:04:06;120.10;;;48.00;;
76136;SDS011;68622;53.128;17.966;2024-01-30T02:06:33;103.00;;;43.10;;
76136;SDS011;68622;53.128;17.966;2024-01-30T02:09:00;106.40;;;44.60;;
76136;SDS011;68622;53.128;17.966;2024-01-30T02:11:27;106.30;;;48.60;;
76136;SDS011;68622;53.128;17.966;2024-01-30T02:13:53;101.10;;;42.10;;
76136;SDS011;68622;53.128;17.966;2024-01-30T02:16:19;101.00;;;42.60;;
76136;SDS011;68622;53.128;17.966;2024-01-30T02:18:45;101.60;;;43.80;;
76136;SDS011;68622;53.128;17.966;2024-01-30T02:21:14;99.30;;;42.10;;
76136;SDS011;68622;53.128;17.966;2024-01-30T02:23:41;101.70;;;44.70;;
76136;SDS011;68622;53.128;17.966;2024-01-30T02:26:09;99.40;;;43.90;;
76136;SDS011;68622;53.128;17.966;2024-01-30T02:28:37;108.90;;;45.90;;
76136;SDS011;68622;53.128;17.966;2024-01-30T02:31:04;91.40;;;43.20;;
76136;SDS011;68622;53.128;17.966;2024-01-30T02:33:30;99.00;;;44.10;;
76136;SDS011;68622;53.128;17.966;2024-01-30T02:35:56;98.20;;;43.00;;
76136;SDS011;68622;53.128;17.966;2024-01-30T02:38:22;86.50;;;38.80;;
76136;SDS011;68622;53.128;17.966;2024-01-30T02:40:52;90.50;;;38.90;;
76136;SDS011;68622;53.128;17.966;2024-01-30T02:43:18;93.50;;;42.70;;
76136;SDS011;68622;53.128;17.966;2024-01-30T02:45:44;98.60;;;42.40;;
76136;SDS011;68622;53.128;17.966;2024-01-30T02:48:10;93.00;;;42.30;;
76136;SDS011;68622;53.128;17.966;2024-01-30T02:50:36;97.70;;;42.20;;
76136;SDS011;68622;53.128;17.966;2024-01-30T02:53:02;104.60;;;45.60;;
76136;SDS011;68622;53.128;17.966;2024-01-30T02:55:28;105.70;;;46.40;;
76136;SDS011;68622;53.128;17.966;2024-01-30T02:57:54;113.80;;;43.30;;
76136;SDS011;68622;53.128;17.966;2024-01-30T03:00:20;99.00;;;40.90;;
76136;SDS011;68622;53.128;17.966;2024-01-30T03:02:46;87.00;;;39.70;;
76136;SDS011;68622;53.128;17.966;2024-01-30T03:05:12;81.00;;;38.10;;
76136;SDS011;68622;53.128;17.966;2024-01-30T03:07:38;85.90;;;37.30;;
76136;SDS011;68622;53.128;17.966;2024-01-30T03:10:04;86.90;;;37.50;;
76136;SDS011;68622;53.128;17.966;2024-01-30T03:12:31;89.60;;;38.40;;
76136;SDS011;68622;53.128;17.966;2024-01-30T03:14:58;93.10;;;39.80;;
76136;SDS011;68622;53.128;17.966;2024-01-30T03:17:24;94.50;;;39.80;;
76136;SDS011;68622;53.128;17.966;2024-01-30T03:19:50;91.70;;;38.90;;
76136;SDS011;68622;53.128;17.966;2024-01-30T03:22:16;92.50;;;38.80;;
76136;SDS011;68622;53.128;17.966;2024-01-30T03:24:42;84.30;;;37.70;;
76136;SDS011;68622;53.128;17.966;2024-01-30T03:27:08;85.70;;;37.90;;
76136;SDS011;68622;53.128;17.966;2024-01-30T03:29:34;81.30;;;36.90;;
76136;SDS011;68622;53.128;17.966;2024-01-30T03:32:01;82.00;;;34.80;;
76136;SDS011;68622;53.128;17.966;2024-01-30T03:34:27;88.60;;;35.40;;
76136;SDS011;68622;53.128;17.966;2024-01-30T03:36:53;80.40;;;35.40;;
76136;SDS011;68622;53.128;17.966;2024-01-30T03:39:19;81.60;;;35.30;;
76136;SDS011;68622;53.128;17.966;2024-01-30T03:41:45;89.20;;;37.70;;
76136;SDS011;68622;53.128;17.966;2024-01-30T03:44:11;90.80;;;39.70;;
76136;SDS011;68622;53.128;17.966;2024-01-30T03:46:37;102.00;;;43.30;;
76136;SDS011;68622;53.128;17.966;2024-01-30T03:49:03;93.40;;;40.20;;
76136;SDS011;68622;53.128;17.966;2024-01-30T03:51:29;99.20;;;42.90;;
76136;SDS011;68622;53.128;17.966;2024-01-30T03:53:55;87.60;;;38.60;;
76136;SDS011;68622;53.128;17.966;2024-01-30T03:56:21;92.40;;;39.70;;
76136;SDS011;68622;53.128;17.966;2024-01-30T03:58:47;87.60;;;38.40;;
76136;SDS011;68622;53.128;17.966;2024-01-30T04:01:13;84.20;;;35.70;;
76136;SDS011;68622;53.128;17.966;2024-01-30T04:03:40;74.30;;;35.10;;
76136;SDS011;68622;53.128;17.966;2024-01-30T04:06:07;76.80;;;34.00;;
76136;SDS011;68622;53.128;17.966;2024-01-30T04:08:34;80.30;;;35.00;;
76136;SDS011;68622;53.128;17.966;2024-01-30T04:11:09;83.60;;;36.90;;
76136;SDS011;68622;53.128;17.966;2024-01-30T04:13:34;76.70;;;33.50;;
76136;SDS011;68622;53.128;17.966;2024-01-30T04:16:01;80.40;;;34.40;;
76136;SDS011;68622;53.128;17.966;2024-01-30T04:18:28;81.60;;;34.20;;
76136;SDS011;68622;53.128;17.966;2024-01-30T04:20:54;78.00;;;35.30;;
76136;SDS011;68622;53.128;17.966;2024-01-30T04:23:21;84.30;;;36.00;;
76136;SDS011;68622;53.128;17.966;2024-01-30T04:25:46;97.70;;;40.20;;
76136;SDS011;68622;53.128;17.966;2024-01-30T04:28:12;90.30;;;39.20;;
76136;SDS011;68622;53.128;17.966;2024-01-30T04:30:39;80.10;;;36.80;;
76136;SDS011;68622;53.128;17.966;2024-01-30T04:33:05;88.50;;;39.20;;
76136;SDS011;68622;53.128;17.966;2024-01-30T04:35:31;87.30;;;37.10;;
76136;SDS011;68622;53.128;17.966;2024-01-30T04:37:57;95.90;;;38.00;;
76136;SDS011;68622;53.128;17.966;2024-01-30T04:40:23;85.30;;;37.20;;
76136;SDS011;68622;53.128;17.966;2024-01-30T04:42:49;80.80;;;36.30;;
76136;SDS011;68622;53.128;17.966;2024-01-30T04:45:15;77.30;;;33.20;;
76136;SDS011;68622;53.128;17.966;2024-01-30T04:47:41;93.20;;;39.10;;
76136;SDS011;68622;53.128;17.966;2024-01-30T04:50:07;94.60;;;39.40;;
76136;SDS011;68622;53.128;17.966;2024-01-30T04:52:34;88.50;;;37.70;;
76136;SDS011;68622;53.128;17.966;2024-01-30T04:55:01;95.00;;;37.80;;
76136;SDS011;68622;53.128;17.966;2024-01-30T04:57:27;84.10;;;37.40;;
76136;SDS011;68622;53.128;17.966;2024-01-30T04:59:53;106.90;;;42.30;;
76136;SDS011;68622;53.128;17.966;2024-01-30T05:02:19;108.50;;;42.00;;
76136;SDS011;68622;53.128;17.966;2024-01-30T05:04:45;101.30;;;38.60;;
76136;SDS011;68622;53.128;17.966;2024-01-30T05:07:11;112.00;;;43.30;;
76136;SDS011;68622;53.128;17.966;2024-01-30T05:09:37;108.60;;;40.90;;
76136;SDS011;68622;53.128;17.966;2024-01-30T05:12:03;111.10;;;43.10;;
76136;SDS011;68622;53.128;17.966;2024-01-30T05:14:29;106.40;;;41.90;;
76136;SDS011;68622;53.128;17.966;2024-01-30T05:16:55;93.00;;;38.90;;
76136;SDS011;68622;53.128;17.966;2024-01-30T05:19:21;83.20;;;35.40;;
76136;SDS011;68622;53.128;17.966;2024-01-30T05:21:49;91.00;;;38.00;;
76136;SDS011;68622;53.128;17.966;2024-01-30T05:24:15;96.60;;;40.30;;
76136;SDS011;68622;53.128;17.966;2024-01-30T05:26:41;93.80;;;39.40;;
76136;SDS011;68622;53.128;17.966;2024-01-30T05:29:07;91.20;;;39.50;;
76136;SDS011;68622;53.128;17.966;2024-01-30T05:31:33;87.00;;;35.60;;
76136;SDS011;68622;53.128;17.966;2024-01-30T05:34:00;83.60;;;35.00;;
76136;SDS011;68622;53.128;17.966;2024-01-30T05:36:26;71.80;;;31.50;;
76136;SDS011;68622;53.128;17.966;2024-01-30T05:38:52;67.40;;;31.40;;
76136;SDS011;68622;53.128;17.966;2024-01-30T05:41:18;75.20;;;33.60;;
76136;SDS011;68622;53.128;17.966;2024-01-30T05:43:44;88.80;;;35.60;;
76136;SDS011;68622;53.128;17.966;2024-01-30T05:46:10;98.40;;;39.20;;
76136;SDS011;68622;53.128;17.966;2024-01-30T05:48:36;94.60;;;37.10;;
76136;SDS011;68622;53.128;17.966;2024-01-30T05:51:02;100.00;;;38.50;;
76136;SDS011;68622;53.128;17.966;2024-01-30T05:53:29;92.50;;;36.90;;
76136;SDS011;68622;53.128;17.966;2024-01-30T05:55:55;82.20;;;39.40;;
76136;SDS011;68622;53.128;17.966;2024-01-30T05:58:21;86.70;;;35.90;;
76136;SDS011;68622;53.128;17.966;2024-01-30T06:00:47;86.00;;;37.50;;
76136;SDS011;68622;53.128;17.966;2024-01-30T06:03:13;86.00;;;37.30;;
76136;SDS011;68622;53.128;17.966;2024-01-30T06:05:39;79.70;;;36.90;;
76136;SDS011;68622;53.128;17.966;2024-01-30T06:08:05;77.00;;;35.90;;
76136;SDS011;68622;53.128;17.966;2024-01-30T06:10:31;103.80;;;40.30;;
76136;SDS011;68622;53.128;17.966;2024-01-30T06:12:57;251.30;;;84.00;;
76136;SDS011;68622;53.128;17.966;2024-01-30T06:15:23;308.10;;;102.90;;
76136;SDS011;68622;53.128;17.966;2024-01-30T06:17:49;260.20;;;86.40;;
76136;SDS011;68622;53.128;17.966;2024-01-30T06:20:15;200.20;;;69.60;;
76136;SDS011;68622;53.128;17.966;2024-01-30T06:22:41;174.80;;;61.90;;
76136;SDS011;68622;53.128;17.966;2024-01-30T06:25:07;196.80;;;69.20;;
76136;SDS011;68622;53.128;17.966;2024-01-30T06:27:33;199.20;;;69.70;;
76136;SDS011;68622;53.128;17.966;2024-01-30T06:29:59;207.60;;;75.90;;
76136;SDS011;68622;53.128;17.966;2024-01-30T06:32:25;209.60;;;78.00;;
76136;SDS011;68622;53.128;17.966;2024-01-30T06:34:50;196.90;;;69.90;;
76136;SDS011;68622;53.128;17.966;2024-01-30T06:37:16;268.50;;;91.20;;
76136;SDS011;68622;53.128;17.966;2024-01-30T06:39:42;272.20;;;93.60;;
76136;SDS011;68622;53.128;17.966;2024-01-30T06:42:08;209.40;;;71.50;;
76136;SDS011;68622;53.128;17.966;2024-01-30T06:44:34;194.90;;;68.50;;
76136;SDS011;68622;53.128;17.966;2024-01-30T06:47:01;187.30;;;65.20;;
76136;SDS011;68622;53.128;17.966;2024-01-30T06:49:27;192.90;;;72.20;;
76136;SDS011;68622;53.128;17.966;2024-01-30T06:51:53;160.30;;;61.90;;
76136;SDS011;68622;53.128;17.966;2024-01-30T06:54:20;138.20;;;56.10;;
76136;SDS011;68622;53.128;17.966;2024-01-30T06:56:46;125.00;;;49.80;;
76136;SDS011;68622;53.128;17.966;2024-01-30T06:59:11;118.20;;;48.70;;
76136;SDS011;68622;53.128;17.966;2024-01-30T07:01:37;115.70;;;47.20;;
76136;SDS011;68622;53.128;17.966;2024-01-30T07:04:03;107.50;;;45.40;;
76136;SDS011;68622;53.128;17.966;2024-01-30T07:06:29;129.00;;;48.70;;
76136;SDS011;68622;53.128;17.966;2024-01-30T07:08:55;107.40;;;44.60;;
76136;SDS011;68622;53.128;17.966;2024-01-30T07:11:21;95.70;;;40.70;;
76136;SDS011;68622;53.128;17.966;2024-01-30T07:13:52;95.00;;;42.20;;
76136;SDS011;68622;53.128;17.966;2024-01-30T07:16:18;87.10;;;39.80;;
76136;SDS011;68622;53.128;17.966;2024-01-30T07:18:44;86.20;;;38.70;;
76136;SDS011;68622;53.128;17.966;2024-01-30T07:21:11;94.40;;;42.80;;
76136;SDS011;68622;53.128;17.966;2024-01-30T07:23:37;88.20;;;38.70;;
76136;SDS011;68622;53.128;17.966;2024-01-30T07:26:04;95.60;;;38.60;;
76136;SDS011;68622;53.128;17.966;2024-01-30T07:28:32;84.80;;;37.90;;
76136;SDS011;68622;53.128;17.966;2024-01-30T07:30:59;86.00;;;39.00;;
76136;SDS011;68622;53.128;17.966;2024-01-30T07:33:24;96.30;;;38.20;;
76136;SDS011;68622;53.128;17.966;2024-01-30T07:35:52;93.70;;;39.70;;
76136;SDS011;68622;53.128;17.966;2024-01-30T07:38:18;96.00;;;40.60;;
76136;SDS011;68622;53.128;17.966;2024-01-30T07:40:45;100.70;;;44.80;;
76136;SDS011;68622;53.128;17.966;2024-01-30T07:43:11;101.40;;;44.00;;
76136;SDS011;68622;53.128;17.966;2024-01-30T07:45:37;100.60;;;43.10;;
76136;SDS011;68622;53.128;17.966;2024-01-30T07:48:06;99.10;;;39.60;;
76136;SDS011;68622;53.128;17.966;2024-01-30T07:50:32;84.40;;;36.50;;
76136;SDS011;68622;53.128;17.966;2024-01-30T07:52:59;81.70;;;34.20;;
76136;SDS011;68622;53.128;17.966;2024-01-30T07:55:27;87.80;;;38.50;;
76136;SDS011;68622;53.128;17.966;2024-01-30T07:57:57;98.80;;;41.10;;
76136;SDS011;68622;53.128;17.966;2024-01-30T08:00:24;93.10;;;40.30;;
76136;SDS011;68622;53.128;17.966;2024-01-30T08:02:50;92.10;;;41.40;;
76136;SDS011;68622;53.128;17.966;2024-01-30T08:05:16;78.50;;;35.00;;
76136;SDS011;68622;53.128;17.966;2024-01-30T08:07:42;73.40;;;32.00;;
76136;SDS011;68622;53.128;17.966;2024-01-30T08:10:08;48.00;;;20.90;;
76136;SDS011;68622;53.128;17.966;2024-01-30T08:12:34;46.40;;;20.10;;
76136;SDS011;68622;53.128;17.966;2024-01-30T08:15:00;43.80;;;18.50;;
76136;SDS011;68622;53.128;17.966;2024-01-30T08:17:26;35.70;;;16.60;;
76136;SDS011;68622;53.128;17.966;2024-01-30T08:19:52;36.00;;;16.60;;
76136;SDS011;68622;53.128;17.966;2024-01-30T08:22:18;32.40;;;16.10;;
76136;SDS011;68622;53.128;17.966;2024-01-30T08:24:44;41.40;;;17.50;;
76136;SDS011;68622;53.128;17.966;2024-01-30T08:27:10;39.00;;;17.70;;
76136;SDS011;68622;53.128;17.966;2024-01-30T08:29:36;42.90;;;20.10;;
76136;SDS011;68622;53.128;17.966;2024-01-30T08:32:02;46.60;;;21.50;;
76136;SDS011;68622;53.128;17.966;2024-01-30T08:34:28;29.30;;;15.00;;
76136;SDS011;68622;53.128;17.966;2024-01-30T08:36:54;36.80;;;17.10;;
76136;SDS011;68622;53.128;17.966;2024-01-30T08:39:19;33.60;;;15.80;;
76136;SDS011;68622;53.128;17.966;2024-01-30T08:41:45;34.50;;;16.80;;
76136;SDS011;68622;53.128;17.966;2024-01-30T08:44:11;34.60;;;17.60;;
76136;SDS011;68622;53.128;17.966;2024-01-30T08:46:37;38.60;;;19.60;;
76136;SDS011;68622;53.128;17.966;2024-01-30T08:49:03;38.20;;;20.70;;
76136;SDS011;68622;53.128;17.966;2024-01-30T08:51:30;32.50;;;14.90;;
76136;SDS011;68622;53.128;17.966;2024-01-30T08:53:56;32.80;;;16.20;;
76136;SDS011;68622;53.128;17.966;2024-01-30T08:56:22;39.30;;;17.00;;
76136;SDS011;68622;53.128;17.966;2024-01-30T08:58:49;34.50;;;16.40;;
76136;SDS011;68622;53.128;17.966;2024-01-30T09:01:14;44.70;;;20.70;;
76136;SDS011;68622;53.128;17.966;2024-01-30T09:03:41;41.60;;;19.50;;
76136;SDS011;68622;53.128;17.966;2024-01-30T09:06:09;42.00;;;18.60;;
76136;SDS011;68622;53.128;17.966;2024-01-30T09:08:36;68.30;;;30.90;;
76136;SDS011;68622;53.128;17.966;2024-01-30T09:11:08;64.60;;;30.60;;
76136;SDS011;68622;53.128;17.966;2024-01-30T09:13:35;78.50;;;35.10;;
76136;SDS011;68622;53.128;17.966;2024-01-30T09:16:02;61.10;;;29.30;;
76136;SDS011;68622;53.128;17.966;2024-01-30T09:18:28;56.60;;;27.50;;
76136;SDS011;68622;53.128;17.966;2024-01-30T09:20:54;36.10;;;17.90;;
76136;SDS011;68622;53.128;17.966;2024-01-30T09:23:20;40.50;;;18.60;;
76136;SDS011;68622;53.128;17.966;2024-01-30T09:25:46;42.10;;;18.90;;
76136;SDS011;68622;53.128;17.966;2024-01-30T09:28:12;46.60;;;23.70;;
76136;SDS011;68622;53.128;17.966;2024-01-30T09:30:38;106.70;;;55.10;;
76136;SDS011;68622;53.128;17.966;2024-01-30T09:33:05;48.90;;;25.80;;
76136;SDS011;68622;53.128;17.966;2024-01-30T09:35:37;39.80;;;21.00;;
76136;SDS011;68622;53.128;17.966;2024-01-30T09:38:03;46.30;;;27.10;;
76136;SDS011;68622;53.128;17.966;2024-01-30T09:40:32;38.20;;;20.20;;
76136;SDS011;68622;53.128;17.966;2024-01-30T09:43:02;37.50;;;19.90;;
76136;SDS011;68622;53.128;17.966;2024-01-30T09:45:28;31.30;;;14.90;;
76136;SDS011;68622;53.128;17.966;2024-01-30T09:47:55;32.90;;;16.30;;
76136;SDS011;68622;53.128;17.966;2024-01-30T09:50:21;28.70;;;14.70;;
76136;SDS011;68622;53.128;17.966;2024-01-30T09:52:47;28.70;;;14.40;;
76136;SDS011;68622;53.128;17.966;2024-01-30T09:55:15;34.10;;;17.80;;
76136;SDS011;68622;53.128;17.966;2024-01-30T09:57:42;29.60;;;14.80;;
76136;SDS011;68622;53.128;17.966;2024-01-30T10:00:08;42.80;;;21.00;;
76136;SDS011;68622;53.128;17.966;2024-01-30T10:02:39;60.10;;;34.30;;
76136;SDS011;68622;53.128;17.966;2024-01-30T10:05:06;40.80;;;18.90;;
76136;SDS011;68622;53.128;17.966;2024-01-30T10:07:32;36.10;;;16.10;;
76136;SDS011;68622;53.128;17.966;2024-01-30T10:10:06;51.00;;;23.60;;
76136;SDS011;68622;53.128;17.966;2024-01-30T10:12:39;43.70;;;20.20;;
76136;SDS011;68622;53.128;17.966;2024-01-30T10:15:06;41.70;;;18.40;;
76136;SDS011;68622;53.128;17.966;2024-01-30T10:17:33;62.30;;;28.10;;
76136;SDS011;68622;53.128;17.966;2024-01-30T10:20:04;39.70;;;18.40;;
76136;SDS011;68622;53.128;17.966;2024-01-30T10:22:31;36.00;;;16.10;;
76136;SDS011;68622;53.128;17.966;2024-01-30T10:24:56;65.00;;;32.60;;
76136;SDS011;68622;53.128;17.966;2024-01-30T10:27:26;47.60;;;21.20;;
76136;SDS011;68622;53.128;17.966;2024-01-30T10:29:53;123.20;;;54.20;;
76136;SDS011;68622;53.128;17.966;2024-01-30T10:32:19;80.50;;;35.90;;
76136;SDS011;68622;53.128;17.966;2024-01-30T10:34:45;41.30;;;18.50;;
76136;SDS011;68622;53.128;17.966;2024-01-30T10:37:11;55.50;;;28.30;;
76136;SDS011;68622;53.128;17.966;2024-01-30T10:39:43;36.10;;;17.30;;
76136;SDS011;68622;53.128;17.966;2024-01-30T10:42:13;34.70;;;17.90;;
76136;SDS011;68622;53.128;17.966;2024-01-30T10:47:29;25.70;;;11.90;;
76136;SDS011;68622;53.128;17.966;2024-01-30T10:49:56;29.90;;;15.60;;
76136;SDS011;68622;53.128;17.966;2024-01-30T10:52:23;28.00;;;13.70;;
76136;SDS011;68622;53.128;17.966;2024-01-30T10:54:55;26.20;;;12.90;;
76136;SDS011;68622;53.128;17.966;2024-01-30T10:57:25;24.20;;;11.30;;
76136;SDS011;68622;53.128;17.966;2024-01-30T10:59:53;30.20;;;16.20;;
76136;SDS011;68622;53.128;17.966;2024-01-30T11:02:28;24.40;;;11.70;;
76136;SDS011;68622;53.128;17.966;2024-01-30T11:04:57;23.50;;;10.80;;
76136;SDS011;68622;53.128;17.966;2024-01-30T11:07:26;24.60;;;13.10;;
76136;SDS011;68622;53.128;17.966;2024-01-30T11:12:24;23.70;;;10.40;;
76136;SDS011;68622;53.128;17.966;2024-01-30T11:15:06;24.90;;;11.90;;
76136;SDS011;68622;53.128;17.966;2024-01-30T11:20:27;27.20;;;14.50;;
76136;SDS011;68622;53.128;17.966;2024-01-30T11:22:59;34.00;;;17.10;;
76136;SDS011;68622;53.128;17.966;2024-01-30T11:25:28;25.30;;;12.40;;
76136;SDS011;68622;53.128;17.966;2024-01-30T11:27:55;22.10;;;10.60;;
76136;SDS011;68622;53.128;17.966;2024-01-30T11:30:28;27.40;;;12.80;;
76136;SDS011;68622;53.128;17.966;2024-01-30T11:33:02;27.60;;;11.80;;
76136;SDS011;68622;53.128;17.966;2024-01-30T11:35:32;34.60;;;13.10;;
76136;SDS011;68622;53.128;17.966;2024-01-30T11:38:00;31.50;;;13.10;;
76136;SDS011;68622;53.128;17.966;2024-01-30T11:40:30;21.80;;;10.60;;
76136;SDS011;68622;53.128;17.966;2024-01-30T11:42:59;33.20;;;12.70;;
76136;SDS011;68622;53.128;17.966;2024-01-30T11:45:27;33.60;;;12.80;;
76136;SDS011;68622;53.128;17.966;2024-01-30T11:47:54;30.90;;;11.60;;
76136;SDS011;68622;53.128;17.966;2024-01-30T11:50:20;44.50;;;17.00;;
76136;SDS011;68622;53.128;17.966;2024-01-30T11:52:47;36.50;;;14.00;;
76136;SDS011;68622;53.128;17.966;2024-01-30T11:55:14;50.30;;;19.70;;
76136;SDS011;68622;53.128;17.966;2024-01-30T11:57:40;31.70;;;13.20;;
76136;SDS011;68622;53.128;17.966;2024-01-30T12:00:13;47.60;;;17.40;;
76136;SDS011;68622;53.128;17.966;2024-01-30T12:02:41;26.40;;;11.20;;
76136;SDS011;68622;53.128;17.966;2024-01-30T12:05:07;53.70;;;18.70;;
76136;SDS011;68622;53.128;17.966;2024-01-30T12:07:33;60.90;;;20.00;;
76136;SDS011;68622;53.128;17.966;2024-01-30T12:09:59;62.90;;;21.50;;
76136;SDS011;68622;53.128;17.966;2024-01-30T12:12:26;46.30;;;17.80;;
76136;SDS011;68622;53.128;17.966;2024-01-30T12:14:53;35.60;;;14.70;;
76136;SDS011;68622;53.128;17.966;2024-01-30T12:17:27;29.20;;;10.80;;
76136;SDS011;68622;53.128;17.966;2024-01-30T12:20:04;31.10;;;12.60;;
76136;SDS011;68622;53.128;17.966;2024-01-30T12:22:42;32.90;;;11.80;;
76136;SDS011;68622;53.128;17.966;2024-01-30T12:27:39;23.10;;;10.50;;
76136;SDS011;68622;53.128;17.966;2024-01-30T12:30:08;29.70;;;12.30;;
76136;SDS011;68622;53.128;17.966;2024-01-30T12:32:35;32.90;;;10.90;;
76136;SDS011;68622;53.128;17.966;2024-01-30T12:35:02;23.20;;;9.50;;
76136;SDS011;68622;53.128;17.966;2024-01-30T12:37:32;27.70;;;11.00;;
76136;SDS011;68622;53.128;17.966;2024-01-30T12:39:58;26.40;;;10.50;;
76136;SDS011;68622;53.128;17.966;2024-01-30T12:42:24;30.40;;;11.00;;
76136;SDS011;68622;53.128;17.966;2024-01-30T12:44:52;25.70;;;11.00;;
76136;SDS011;68622;53.128;17.966;2024-01-30T12:47:18;26.90;;;10.00;;
76136;SDS011;68622;53.128;17.966;2024-01-30T12:49:47;23.70;;;10.80;;
76136;SDS011;68622;53.128;17.966;2024-01-30T12:52:14;26.20;;;11.30;;
76136;SDS011;68622;53.128;17.966;2024-01-30T12:54:42;26.50;;;10.00;;
76136;SDS011;68622;53.128;17.966;2024-01-30T12:57:08;22.60;;;11.00;;
76136;SDS011;68622;53.128;17.966;2024-01-30T12:59:34;33.90;;;11.00;;
76136;SDS011;68622;53.128;17.966;2024-01-30T13:02:01;20.70;;;9.70;;
76136;SDS011;68622;53.128;17.966;2024-01-30T13:04:29;27.20;;;11.50;;
76136;SDS011;68622;53.128;17.966;2024-01-30T13:06:55;27.10;;;11.10;;
76136;SDS011;68622;53.128;17.966;2024-01-30T13:09:21;31.90;;;10.80;;
76136;SDS011;68622;53.128;17.966;2024-01-30T13:11:47;25.00;;;10.10;;
76136;SDS011;68622;53.128;17.966;2024-01-30T13:14:14;38.60;;;11.40;;
76136;SDS011;68622;53.128;17.966;2024-01-30T13:16:40;28.10;;;10.60;;
76136;SDS011;68622;53.128;17.966;2024-01-30T13:19:06;24.20;;;11.00;;
76136;SDS011;68622;53.128;17.966;2024-01-30T13:21:32;26.10;;;10.30;;
76136;SDS011;68622;53.128;17.966;2024-01-30T13:23:58;28.60;;;10.40;;
76136;SDS011;68622;53.128;17.966;2024-01-30T13:26:24;32.70;;;10.90;;
76136;SDS011;68622;53.128;17.966;2024-01-30T13:28:50;30.90;;;10.20;;
76136;SDS011;68622;53.128;17.966;2024-01-30T13:31:16;36.40;;;12.60;;
76136;SDS011;68622;53.128;17.966;2024-01-30T13:33:42;27.20;;;11.10;;
76136;SDS011;68622;53.128;17.966;2024-01-30T13:36:10;42.70;;;13.30;;
76136;SDS011;68622;53.128;17.966;2024-01-30T13:38:36;25.60;;;10.80;;
76136;SDS011;68622;53.128;17.966;2024-01-30T13:41:03;33.60;;;12.70;;
76136;SDS011;68622;53.128;17.966;2024-01-30T13:43:29;32.40;;;12.40;;
76136;SDS011;68622;53.128;17.966;2024-01-30T13:45:55;23.70;;;9.80;;
76136;SDS011;68622;53.128;17.966;2024-01-30T13:48:21;24.80;;;9.90;;
76136;SDS011;68622;53.128;17.966;2024-01-30T13:50:47;24.10;;;10.90;;
76136;SDS011;68622;53.128;17.966;2024-01-30T13:53:13;25.90;;;10.90;;
76136;SDS011;68622;53.128;17.966;2024-01-30T13:55:40;29.80;;;11.00;;
76136;SDS011;68622;53.128;17.966;2024-01-30T13:58:06;25.10;;;11.50;;
76136;SDS011;68622;53.128;17.966;2024-01-30T14:00:33;26.20;;;11.30;;
76136;SDS011;68622;53.128;17.966;2024-01-30T14:02:59;36.40;;;12.60;;
76136;SDS011;68622;53.128;17.966;2024-01-30T14:05:25;27.50;;;10.50;;
76136;SDS011;68622;53.128;17.966;2024-01-30T14:07:53;23.70;;;10.30;;
76136;SDS011;68622;53.128;17.966;2024-01-30T14:10:19;25.90;;;10.70;;
76136;SDS011;68622;53.128;17.966;2024-01-30T14:12:46;25.30;;;12.10;;
76136;SDS011;68622;53.128;17.966;2024-01-30T14:15:16;33.30;;;11.20;;